Time,TemperatureF,DewpointF,PressureIn,WindDirection,WindDirectionDegrees,WindSpeedMPH,WindSpeedGustMPH,Humidity,HourlyPrecipIn,Conditions,Clouds,dailyrainin,SoftwareType,DateUTC
2013-11-02 00:01:00,46.0,45.0,29.71,SSW,202,0.0,0.0,96,0.04,,---,0.00,VWS V14.00,2013-11-02 04:01:00,
2013-11-02 00:02:00,46.0,45.0,29.71,SSW,202,0.0,0.0,96,0.04,,---,0.00,VWS V14.00,2013-11-02 04:02:00,
2013-11-02 00:07:00,45.9,44.8,29.68,SSW,202,0.0,0.0,96,0.04,,---,0.00,VWS V14.00,2013-11-02 04:07:00,
2013-11-02 00:12:00,45.9,44.8,29.68,West,270,1.3,2.5,96,0.04,,---,0.00,VWS V14.00,2013-11-02 04:12:00,
2013-11-02 00:17:00,45.9,44.8,29.68,SSW,202,0.0,0.0,96,0.04,,---,0.00,VWS V14.00,2013-11-02 04:17:00,
2013-11-02 00:22:00,45.9,44.8,29.68,NNE,22,2.9,2.9,96,0.04,,---,0.00,VWS V14.00,2013-11-02 04:22:00,
2013-11-02 00:27:00,45.7,44.6,29.68,North,0,0.0,1.3,96,0.04,,---,0.00,VWS V14.00,2013-11-02 04:27:00,
2013-11-02 00:32:00,45.7,44.6,29.68,NNE,22,0.0,0.0,96,0.04,,---,0.00,VWS V14.00,2013-11-02 04:32:00,
2013-11-02 00:37:00,45.7,44.6,29.68,NNW,338,0.0,0.0,96,0.04,,---,0.00,VWS V14.00,2013-11-02 04:37:00,
2013-11-02 00:42:00,45.7,44.6,29.68,SW,225,0.0,0.9,96,0.04,,---,0.00,VWS V14.00,2013-11-02 04:42:00,
2013-11-02 00:47:00,45.7,44.6,29.68,South,180,0.0,1.6,96,0.00,,---,0.00,VWS V14.00,2013-11-02 04:47:00,
2013-11-02 00:52:00,45.7,44.6,29.68,NE,45,1.3,1.3,96,0.00,,---,0.00,VWS V14.00,2013-11-02 04:52:00,
2013-11-02 00:57:00,45.5,44.4,29.68,NW,315,0.0,0.0,96,0.00,,---,0.00,VWS V14.00,2013-11-02 04:57:00,
2013-11-02 01:02:00,45.5,44.4,29.68,NE,45,0.0,0.0,96,0.00,,---,0.00,VWS V14.00,2013-11-02 05:02:00,
2013-11-02 01:08:00,45.5,44.4,29.68,WNW,292,0.0,0.0,96,0.04,,---,0.04,VWS V14.00,2013-11-02 05:08:00,
2013-11-02 01:13:00,45.5,44.4,29.68,West,270,0.0,0.9,96,0.04,,---,0.04,VWS V14.00,2013-11-02 05:13:00,
2013-11-02 01:18:00,45.3,44.2,29.68,East,90,0.0,0.0,96,0.04,,---,0.04,VWS V14.00,2013-11-02 05:18:00,
2013-11-02 01:23:00,45.3,44.2,29.68,SW,225,0.0,0.0,96,0.04,,---,0.04,VWS V14.00,2013-11-02 05:23:00,
2013-11-02 01:28:00,45.3,44.2,29.68,South,180,0.0,0.0,96,0.04,,---,0.04,VWS V14.00,2013-11-02 05:28:00,
2013-11-02 01:33:00,45.3,44.2,29.71,SSW,202,0.0,0.9,96,0.04,,---,0.04,VWS V14.00,2013-11-02 05:33:00,
2013-11-02 01:38:00,45.3,44.2,29.71,SSW,202,0.0,0.9,96,0.04,,---,0.04,VWS V14.00,2013-11-02 05:38:00,
2013-11-02 01:43:00,45.3,44.2,29.71,SE,135,0.0,0.0,96,0.04,,---,0.04,VWS V14.00,2013-11-02 05:43:00,
2013-11-02 01:48:00,45.3,44.2,29.71,North,0,0.0,0.0,96,0.04,,---,0.04,VWS V14.00,2013-11-02 05:48:00,
2013-11-02 01:53:00,45.3,44.2,29.71,WNW,292,0.0,0.0,96,0.04,,---,0.04,VWS V14.00,2013-11-02 05:53:00,
2013-11-02 01:58:00,45.3,44.2,29.71,SW,225,0.0,0.0,96,0.04,,---,0.04,VWS V14.00,2013-11-02 05:58:00,
2013-11-02 02:03:00,45.5,44.4,29.71,WSW,248,0.0,0.0,96,0.04,,---,0.04,VWS V14.00,2013-11-02 06:03:00,
2013-11-02 02:08:00,45.3,44.2,29.71,NNW,338,0.0,0.0,96,0.00,,---,0.04,VWS V14.00,2013-11-02 06:08:00,
2013-11-02 02:13:00,45.3,44.2,29.71,SW,225,0.0,0.0,96,0.00,,---,0.04,VWS V14.00,2013-11-02 06:13:00,
2013-11-02 02:18:00,45.3,44.2,29.71,SW,225,0.0,0.0,96,0.00,,---,0.04,VWS V14.00,2013-11-02 06:18:00,
2013-11-02 02:24:00,45.3,44.2,29.71,NW,315,0.0,0.0,96,0.00,,---,0.04,VWS V14.00,2013-11-02 06:24:00,
2013-11-02 02:29:00,45.3,44.2,29.71,SSW,202,0.0,0.0,96,0.00,,---,0.04,VWS V14.00,2013-11-02 06:29:00,
2013-11-02 02:34:00,45.3,44.2,29.71,WNW,292,0.0,0.0,96,0.00,,---,0.04,VWS V14.00,2013-11-02 06:34:00,
2013-11-02 02:39:00,45.3,44.2,29.71,SW,225,0.0,0.0,96,0.00,,---,0.04,VWS V14.00,2013-11-02 06:39:00,
2013-11-02 02:44:00,45.3,44.2,29.71,NNW,338,0.0,0.0,96,0.00,,---,0.04,VWS V14.00,2013-11-02 06:44:00,
2013-11-02 02:49:00,45.3,44.2,29.71,SW,225,0.0,0.0,96,0.00,,---,0.04,VWS V14.00,2013-11-02 06:49:00,
2013-11-02 02:54:00,45.3,44.2,29.71,SW,225,0.0,0.0,96,0.00,,---,0.04,VWS V14.00,2013-11-02 06:54:00,
2013-11-02 02:59:00,45.1,44.3,29.71,WSW,248,0.0,0.0,97,0.00,,---,0.04,VWS V14.00,2013-11-02 06:59:00,
2013-11-02 03:04:00,45.3,44.5,29.71,South,180,0.0,0.0,97,0.00,,---,0.04,VWS V14.00,2013-11-02 07:04:00,
2013-11-02 03:09:00,45.3,44.5,29.71,SSW,202,0.0,0.0,97,0.00,,---,0.04,VWS V14.00,2013-11-02 07:09:00,
2013-11-02 03:14:00,45.3,44.5,29.71,SSW,202,0.0,0.0,97,0.00,,---,0.04,VWS V14.00,2013-11-02 07:14:00,
2013-11-02 03:19:00,45.1,44.3,29.71,SSW,202,0.0,0.0,97,0.00,,---,0.04,VWS V14.00,2013-11-02 07:19:00,
2013-11-02 03:24:00,45.1,44.3,29.71,SSW,202,0.0,0.0,97,0.00,,---,0.04,VWS V14.00,2013-11-02 07:24:00,
2013-11-02 03:29:00,45.1,44.3,29.71,WSW,248,0.0,0.0,97,0.00,,---,0.04,VWS V14.00,2013-11-02 07:29:00,
2013-11-02 03:34:00,45.1,44.3,29.71,NW,315,0.0,0.0,97,0.00,,---,0.04,VWS V14.00,2013-11-02 07:34:00,
2013-11-02 03:39:00,45.1,44.3,29.71,SW,225,0.0,0.0,97,0.00,,---,0.04,VWS V14.00,2013-11-02 07:39:00,
2013-11-02 03:44:00,45.1,44.3,29.71,SSW,202,0.0,1.6,97,0.00,,---,0.04,VWS V14.00,2013-11-02 07:44:00,
2013-11-02 03:49:00,45.1,44.3,29.71,West,270,0.0,0.0,97,0.00,,---,0.04,VWS V14.00,2013-11-02 07:49:00,
2013-11-02 03:54:00,45.1,44.3,29.71,South,180,0.0,0.0,97,0.00,,---,0.04,VWS V14.00,2013-11-02 07:54:00,
2013-11-02 04:00:00,45.1,44.3,29.71,SE,135,0.0,0.0,97,0.00,,---,0.04,VWS V14.00,2013-11-02 08:00:00,
2013-11-02 04:05:00,45.1,44.3,29.71,WSW,248,0.0,0.0,97,0.04,,---,0.08,VWS V14.00,2013-11-02 08:05:00,
2013-11-02 04:10:00,45.1,44.3,29.71,WSW,248,0.0,0.0,97,0.04,,---,0.08,VWS V14.00,2013-11-02 08:10:00,
2013-11-02 04:15:00,45.1,44.3,29.71,NNE,22,0.0,0.0,97,0.04,,---,0.08,VWS V14.00,2013-11-02 08:15:00,
2013-11-02 04:20:00,45.0,44.2,29.71,South,180,0.0,0.0,97,0.04,,---,0.08,VWS V14.00,2013-11-02 08:20:00,
2013-11-02 04:25:00,45.0,44.2,29.71,SSW,202,0.0,0.0,97,0.04,,---,0.08,VWS V14.00,2013-11-02 08:25:00,
2013-11-02 04:30:00,45.0,44.2,29.71,SSE,158,0.0,0.0,97,0.04,,---,0.08,VWS V14.00,2013-11-02 08:30:00,
2013-11-02 04:35:00,45.0,44.2,29.71,South,180,0.0,0.0,97,0.04,,---,0.08,VWS V14.00,2013-11-02 08:35:00,
2013-11-02 04:40:00,45.0,44.2,29.71,East,90,0.0,0.0,97,0.04,,---,0.08,VWS V14.00,2013-11-02 08:40:00,
2013-11-02 04:45:00,45.0,44.2,29.71,South,180,0.0,0.0,97,0.04,,---,0.08,VWS V14.00,2013-11-02 08:45:00,
2013-11-02 04:50:00,45.0,44.2,29.71,SSW,202,0.0,1.1,97,0.04,,---,0.08,VWS V14.00,2013-11-02 08:50:00,
2013-11-02 04:55:00,45.0,44.2,29.71,SSW,202,0.0,0.0,97,0.04,,---,0.08,VWS V14.00,2013-11-02 08:55:00,
2013-11-02 05:00:00,45.0,44.2,29.71,SSW,202,0.0,0.0,97,0.04,,---,0.08,VWS V14.00,2013-11-02 09:00:00,
2013-11-02 05:05:00,45.0,44.2,29.71,West,270,0.0,0.0,97,0.00,,---,0.08,VWS V14.00,2013-11-02 09:05:00,
2013-11-02 05:10:00,45.0,44.2,29.71,SSW,202,0.0,0.0,97,0.00,,---,0.08,VWS V14.00,2013-11-02 09:10:00,
2013-11-02 05:15:00,45.0,44.2,29.71,SSW,202,0.0,0.0,97,0.00,,---,0.08,VWS V14.00,2013-11-02 09:15:00,
2013-11-02 05:20:00,45.0,44.2,29.71,North,0,0.0,1.1,97,0.00,,---,0.08,VWS V14.00,2013-11-02 09:20:00,
2013-11-02 05:25:00,45.0,44.2,29.71,West,270,0.0,0.0,97,0.00,,---,0.08,VWS V14.00,2013-11-02 09:25:00,
2013-11-02 05:31:00,45.0,44.2,29.71,WSW,248,0.0,0.0,97,0.00,,---,0.08,VWS V14.00,2013-11-02 09:31:00,
2013-11-02 05:36:00,45.0,44.2,29.74,SW,225,0.0,0.0,97,0.00,,---,0.08,VWS V14.00,2013-11-02 09:36:00,
2013-11-02 05:41:00,45.0,44.2,29.74,NE,45,0.0,0.9,97,0.00,,---,0.08,VWS V14.00,2013-11-02 09:41:00,
2013-11-02 05:46:00,44.8,44.0,29.74,NE,45,0.0,0.0,97,0.00,,---,0.08,VWS V14.00,2013-11-02 09:46:00,
2013-11-02 05:51:00,44.8,44.0,29.74,West,270,0.0,1.6,97,0.00,,---,0.08,VWS V14.00,2013-11-02 09:51:00,
2013-11-02 05:56:00,44.8,44.0,29.74,West,270,0.0,0.0,97,0.00,,---,0.08,VWS V14.00,2013-11-02 09:56:00,
2013-11-02 06:01:00,44.8,44.0,29.74,NW,315,0.0,0.9,97,0.00,,---,0.08,VWS V14.00,2013-11-02 10:01:00,
2013-11-02 06:06:00,44.8,44.0,29.74,WSW,248,0.0,0.0,97,0.00,,---,0.08,VWS V14.00,2013-11-02 10:06:00,
2013-11-02 06:11:00,44.8,44.0,29.74,West,270,0.0,0.0,97,0.00,,---,0.08,VWS V14.00,2013-11-02 10:11:00,
2013-11-02 06:16:00,44.8,44.0,29.74,West,270,0.0,0.0,97,0.00,,---,0.08,VWS V14.00,2013-11-02 10:16:00,
2013-11-02 06:21:00,44.8,44.0,29.74,West,270,0.0,0.0,97,0.00,,---,0.08,VWS V14.00,2013-11-02 10:21:00,
2013-11-02 06:26:00,44.6,43.8,29.74,West,270,0.0,0.0,97,0.00,,---,0.08,VWS V14.00,2013-11-02 10:26:00,
2013-11-02 06:31:00,44.6,43.8,29.74,West,270,0.0,0.0,97,0.00,,---,0.08,VWS V14.00,2013-11-02 10:31:00,
2013-11-02 06:36:00,44.6,43.8,29.74,West,270,0.0,0.0,97,0.00,,---,0.08,VWS V14.00,2013-11-02 10:36:00,
2013-11-02 06:41:00,44.6,43.8,29.74,WSW,248,0.0,0.0,97,0.00,,---,0.08,VWS V14.00,2013-11-02 10:41:00,
2013-11-02 06:46:00,44.6,43.8,29.74,West,270,0.0,0.0,97,0.00,,---,0.08,VWS V14.00,2013-11-02 10:46:00,
2013-11-02 06:52:00,44.6,43.8,29.74,WNW,292,0.0,0.0,97,0.00,,---,0.08,VWS V14.00,2013-11-02 10:52:00,
2013-11-02 06:57:00,44.6,43.8,29.74,WNW,292,0.0,0.0,97,0.00,,---,0.08,VWS V14.00,2013-11-02 10:57:00,
2013-11-02 07:02:00,44.6,43.8,29.74,WNW,292,0.0,0.0,97,0.00,,---,0.08,VWS V14.00,2013-11-02 11:02:00,
2013-11-02 07:07:00,44.6,43.8,29.74,WNW,292,0.0,0.0,97,0.04,,---,0.12,VWS V14.00,2013-11-02 11:07:00,
2013-11-02 07:12:00,44.6,43.8,29.74,WNW,292,0.0,0.0,97,0.04,,---,0.12,VWS V14.00,2013-11-02 11:12:00,
2013-11-02 07:17:00,44.6,43.8,29.74,WSW,248,0.0,0.0,97,0.04,,---,0.12,VWS V14.00,2013-11-02 11:17:00,
2013-11-02 07:22:00,44.6,43.8,29.74,WSW,248,0.0,0.0,97,0.04,,---,0.12,VWS V14.00,2013-11-02 11:22:00,
2013-11-02 07:27:00,44.6,43.8,29.74,WSW,248,0.0,0.0,97,0.04,,---,0.12,VWS V14.00,2013-11-02 11:27:00,
2013-11-02 07:32:00,44.6,43.8,29.74,WSW,248,0.0,0.0,97,0.04,,---,0.12,VWS V14.00,2013-11-02 11:32:00,
2013-11-02 07:37:00,44.6,43.8,29.74,WSW,248,0.0,0.0,97,0.04,,---,0.12,VWS V14.00,2013-11-02 11:37:00,
2013-11-02 07:42:00,44.6,43.8,29.74,WSW,248,0.0,0.0,97,0.04,,---,0.12,VWS V14.00,2013-11-02 11:42:00,
2013-11-02 07:47:00,44.6,43.8,29.74,WSW,248,0.0,0.0,97,0.04,,---,0.12,VWS V14.00,2013-11-02 11:47:00,
2013-11-02 07:52:00,44.6,43.8,29.74,West,270,0.0,0.0,97,0.04,,---,0.12,VWS V14.00,2013-11-02 11:52:00,
2013-11-02 07:57:00,44.6,43.8,29.74,West,270,0.0,0.0,97,0.04,,---,0.12,VWS V14.00,2013-11-02 11:57:00,
2013-11-02 08:02:00,44.4,43.6,29.74,West,270,0.0,0.0,97,0.04,,---,0.12,VWS V14.00,2013-11-02 12:02:00,
2013-11-02 08:08:00,44.4,43.6,29.74,WSW,248,0.0,0.0,97,0.00,,---,0.12,VWS V14.00,2013-11-02 12:08:00,
2013-11-02 08:13:00,44.4,43.6,29.74,NW,315,0.0,0.0,97,0.00,,---,0.12,VWS V14.00,2013-11-02 12:13:00,
2013-11-02 08:18:00,44.4,43.6,29.74,SW,225,0.0,0.0,97,0.00,,---,0.12,VWS V14.00,2013-11-02 12:18:00,
2013-11-02 08:23:00,44.4,43.6,29.74,SW,225,0.0,0.0,97,0.00,,---,0.12,VWS V14.00,2013-11-02 12:23:00,
2013-11-02 08:28:00,44.4,43.6,29.74,SW,225,0.0,0.0,97,0.00,,---,0.12,VWS V14.00,2013-11-02 12:28:00,
2013-11-02 08:33:00,44.4,43.6,29.74,WSW,248,0.0,0.0,97,0.00,,---,0.12,VWS V14.00,2013-11-02 12:33:00,
2013-11-02 08:38:00,44.4,43.6,29.74,WSW,248,0.0,0.0,97,0.00,,---,0.12,VWS V14.00,2013-11-02 12:38:00,
2013-11-02 08:43:00,44.4,43.6,29.74,WSW,248,0.0,0.0,97,0.00,,---,0.12,VWS V14.00,2013-11-02 12:43:00,
2013-11-02 08:48:00,44.6,43.8,29.76,WSW,248,0.0,0.0,97,0.00,,---,0.12,VWS V14.00,2013-11-02 12:48:00,
2013-11-02 08:53:00,44.4,43.6,29.76,ESE,112,0.0,0.0,97,0.00,,---,0.12,VWS V14.00,2013-11-02 12:53:00,
2013-11-02 08:58:00,44.4,43.6,29.76,WSW,248,0.0,0.0,97,0.00,,---,0.12,VWS V14.00,2013-11-02 12:58:00,
2013-11-02 09:03:00,44.2,43.4,29.76,NNW,338,0.0,0.0,97,0.00,,---,0.12,VWS V14.00,2013-11-02 13:03:00,
2013-11-02 09:08:00,44.1,43.3,29.76,NNW,338,0.0,3.1,97,0.00,,---,0.12,VWS V14.00,2013-11-02 13:08:00,
2013-11-02 09:13:00,43.5,42.5,29.76,NNE,22,0.9,1.3,96,0.00,,---,0.12,VWS V14.00,2013-11-02 13:13:00,
2013-11-02 09:18:00,43.2,41.8,29.76,SSW,202,0.0,2.2,95,0.00,,---,0.12,VWS V14.00,2013-11-02 13:18:00,
2013-11-02 09:23:00,43.0,41.4,29.76,NE,45,0.0,1.3,94,0.00,,---,0.12,VWS V14.00,2013-11-02 13:23:00,
2013-11-02 09:29:00,43.0,41.4,29.76,North,0,0.0,0.0,94,0.00,,---,0.12,VWS V14.00,2013-11-02 13:29:00,
2013-11-02 09:34:00,42.8,41.2,29.76,NNW,338,0.0,2.7,94,0.00,,---,0.12,VWS V14.00,2013-11-02 13:34:00,
2013-11-02 09:39:00,42.8,41.2,29.76,NNE,22,0.0,0.0,94,0.00,,---,0.12,VWS V14.00,2013-11-02 13:39:00,
2013-11-02 09:44:00,42.8,41.5,29.76,SW,225,0.0,0.0,95,0.00,,---,0.12,VWS V14.00,2013-11-02 13:44:00,
2013-11-02 09:49:00,43.0,41.7,29.76,West,270,0.0,0.0,95,0.00,,---,0.12,VWS V14.00,2013-11-02 13:49:00,
2013-11-02 09:54:00,43.0,41.7,29.76,NW,315,0.0,0.9,95,0.00,,---,0.12,VWS V14.00,2013-11-02 13:54:00,
2013-11-02 09:59:00,43.2,41.8,29.76,NNW,338,0.0,0.0,95,0.00,,---,0.12,VWS V14.00,2013-11-02 13:59:00,
2013-11-02 10:04:00,43.5,42.5,29.76,NNW,338,0.0,0.0,96,0.00,,---,0.12,VWS V14.00,2013-11-02 14:04:00,
2013-11-02 10:09:00,43.9,42.8,29.76,NNW,338,0.0,0.0,96,0.00,,---,0.12,VWS V14.00,2013-11-02 14:09:00,
2013-11-02 10:14:00,43.9,42.8,29.76,North,0,0.0,0.0,96,0.00,,---,0.12,VWS V14.00,2013-11-02 14:14:00,
2013-11-02 10:20:00,44.1,43.0,29.79,NNE,22,0.0,1.3,96,0.00,,---,0.12,VWS V14.00,2013-11-02 14:20:00,
2013-11-02 10:25:00,44.1,42.7,29.79,NNW,338,0.0,4.3,95,0.00,,---,0.12,VWS V14.00,2013-11-02 14:25:00,
2013-11-02 10:30:00,43.9,42.3,29.79,NNE,22,0.0,1.3,94,0.00,,---,0.12,VWS V14.00,2013-11-02 14:30:00,
2013-11-02 10:35:00,44.1,42.2,29.82,NNE,22,0.0,0.0,93,0.00,,---,0.12,VWS V14.00,2013-11-02 14:35:00,
2013-11-02 10:40:00,44.1,41.9,29.82,NW,315,0.0,0.0,92,0.00,,---,0.12,VWS V14.00,2013-11-02 14:40:00,
2013-11-02 10:45:00,44.2,41.8,29.82,North,0,0.0,0.0,91,0.00,,---,0.12,VWS V14.00,2013-11-02 14:45:00,
2013-11-02 10:50:00,44.4,41.7,29.82,NNW,338,0.0,2.2,90,0.00,,---,0.12,VWS V14.00,2013-11-02 14:50:00,
2013-11-02 10:55:00,44.6,41.6,29.82,ENE,68,0.0,0.0,89,0.00,,---,0.12,VWS V14.00,2013-11-02 14:55:00,
2013-11-02 11:00:00,44.4,41.1,29.82,North,0,0.0,2.2,88,0.00,,---,0.12,VWS V14.00,2013-11-02 15:00:00,
2013-11-02 11:05:00,44.4,41.1,29.82,NW,315,0.0,0.0,88,0.00,,---,0.12,VWS V14.00,2013-11-02 15:05:00,
2013-11-02 11:10:00,44.6,41.0,29.82,SW,225,0.0,0.0,87,0.00,,---,0.12,VWS V14.00,2013-11-02 15:10:00,
2013-11-02 11:15:00,45.7,42.3,29.82,East,90,0.0,0.0,88,0.00,,---,0.12,VWS V14.00,2013-11-02 15:15:00,
2013-11-02 11:20:00,45.9,41.9,29.82,NNE,22,0.9,0.9,86,0.00,,---,0.12,VWS V14.00,2013-11-02 15:20:00,
2013-11-02 11:25:00,45.5,41.0,29.82,ESE,112,0.0,0.0,84,0.00,,---,0.12,VWS V14.00,2013-11-02 15:25:00,
2013-11-02 11:30:00,45.9,41.6,29.82,West,270,3.4,3.4,85,0.00,,---,0.12,VWS V14.00,2013-11-02 15:30:00,
2013-11-02 11:35:00,46.0,41.8,29.79,WSW,248,0.0,0.0,85,0.00,,---,0.12,VWS V14.00,2013-11-02 15:35:00,
2013-11-02 11:40:00,46.0,40.9,29.79,NNE,22,0.0,0.0,82,0.00,,---,0.12,VWS V14.00,2013-11-02 15:40:00,
2013-11-02 11:45:00,46.0,41.2,29.79,North,0,0.0,0.0,83,0.00,,---,0.12,VWS V14.00,2013-11-02 15:45:00,
2013-11-02 11:50:00,46.2,41.7,29.82,ENE,68,0.0,0.0,84,0.00,,---,0.12,VWS V14.00,2013-11-02 15:50:00,
2013-11-02 11:55:00,46.4,41.5,29.82,WSW,248,0.0,0.0,83,0.00,,---,0.12,VWS V14.00,2013-11-02 15:55:00,
2013-11-02 12:01:00,46.6,41.4,29.82,WSW,248,0.0,0.0,82,0.00,,---,0.12,VWS V14.00,2013-11-02 16:01:00,
2013-11-02 12:05:00,46.8,41.6,29.82,WSW,248,0.0,0.0,82,0.00,,---,0.12,VWS V14.00,2013-11-02 16:05:00,
2013-11-02 12:11:00,47.1,41.9,29.82,WSW,248,0.0,0.9,82,0.00,,---,0.12,VWS V14.00,2013-11-02 16:11:00,
2013-11-02 12:16:00,47.5,42.0,29.82,West,270,0.0,0.0,81,0.00,,---,0.12,VWS V14.00,2013-11-02 16:16:00,
2013-11-02 12:21:00,47.7,42.1,29.82,West,270,2.5,2.5,81,0.00,,---,0.12,VWS V14.00,2013-11-02 16:21:00,
2013-11-02 12:26:00,48.0,42.5,29.82,SW,225,0.0,0.0,81,0.00,,---,0.12,VWS V14.00,2013-11-02 16:26:00,
2013-11-02 12:31:00,48.2,42.7,29.82,WSW,248,0.0,0.0,81,0.00,,---,0.12,VWS V14.00,2013-11-02 16:31:00,
2013-11-02 12:36:00,48.2,41.3,29.85,NW,315,0.0,0.0,77,0.00,,---,0.12,VWS V14.00,2013-11-02 16:36:00,
2013-11-02 12:41:00,48.2,40.3,29.85,West,270,0.9,1.6,74,0.00,,---,0.12,VWS V14.00,2013-11-02 16:41:00,
2013-11-02 12:46:00,48.6,40.3,29.85,SW,225,2.0,2.2,73,0.00,,---,0.12,VWS V14.00,2013-11-02 16:46:00,
2013-11-02 12:51:00,48.7,39.4,29.85,SW,225,1.3,2.2,70,0.00,,---,0.12,VWS V14.00,2013-11-02 16:51:00,
2013-11-02 12:56:00,49.5,40.1,29.85,WSW,248,2.2,2.2,70,0.00,,---,0.12,VWS V14.00,2013-11-02 16:56:00,
2013-11-02 13:01:00,49.3,38.0,29.85,NNW,338,3.1,3.1,65,0.00,,---,0.12,VWS V14.00,2013-11-02 17:01:00,
2013-11-02 13:06:00,49.3,38.0,29.85,NNW,338,1.1,1.1,65,0.00,,---,0.12,VWS V14.00,2013-11-02 17:06:00,
2013-11-02 13:11:00,50.2,40.0,29.85,SW,225,1.3,1.3,68,0.00,,---,0.12,VWS V14.00,2013-11-02 17:11:00,
2013-11-02 13:16:00,50.4,39.5,29.85,West,270,1.1,1.1,66,0.00,,---,0.12,VWS V14.00,2013-11-02 17:16:00,
2013-11-02 13:21:00,49.8,37.8,29.85,NNE,22,2.7,2.7,63,0.00,,---,0.12,VWS V14.00,2013-11-02 17:21:00,
2013-11-02 13:26:00,49.3,36.8,29.85,West,270,1.1,1.1,62,0.00,,---,0.12,VWS V14.00,2013-11-02 17:26:00,
2013-11-02 13:32:00,49.1,37.5,29.85,ESE,112,0.0,0.0,64,0.00,,---,0.12,VWS V14.00,2013-11-02 17:32:00,
2013-11-02 13:37:00,48.9,36.9,29.85,NW,315,0.9,0.9,63,0.00,,---,0.12,VWS V14.00,2013-11-02 17:37:00,
2013-11-02 13:42:00,48.7,36.7,29.85,WSW,248,0.0,1.1,63,0.00,,---,0.12,VWS V14.00,2013-11-02 17:42:00,
2013-11-02 13:47:00,48.7,37.1,29.85,NNE,22,0.0,0.0,64,0.00,,---,0.12,VWS V14.00,2013-11-02 17:47:00,
2013-11-02 13:52:00,49.1,38.2,29.85,WSW,248,1.6,1.6,66,0.00,,---,0.12,VWS V14.00,2013-11-02 17:52:00,
2013-11-02 13:57:00,49.5,38.6,29.85,North,0,0.0,0.0,66,0.00,,---,0.12,VWS V14.00,2013-11-02 17:57:00,
2013-11-02 14:02:00,49.5,37.8,29.85,WSW,248,2.2,2.2,64,0.00,,---,0.12,VWS V14.00,2013-11-02 18:02:00,
2013-11-02 14:07:00,49.1,36.7,29.85,WSW,248,0.0,0.0,62,0.00,,---,0.12,VWS V14.00,2013-11-02 18:07:00,
2013-11-02 14:12:00,49.5,37.8,29.85,WSW,248,0.0,0.0,64,0.00,,---,0.12,VWS V14.00,2013-11-02 18:12:00,
2013-11-02 14:17:00,49.8,38.9,29.85,West,270,0.0,0.0,66,0.00,,---,0.12,VWS V14.00,2013-11-02 18:17:00,
2013-11-02 14:22:00,50.2,37.7,29.85,WNW,292,0.9,2.0,62,0.00,,---,0.12,VWS V14.00,2013-11-02 18:22:00,
2013-11-02 14:27:00,49.6,36.8,29.85,WSW,248,0.0,0.0,61,0.00,,---,0.12,VWS V14.00,2013-11-02 18:27:00,
2013-11-02 14:32:00,49.8,38.5,29.85,West,270,0.0,0.0,65,0.00,,---,0.12,VWS V14.00,2013-11-02 18:32:00,
2013-11-02 14:38:00,49.8,39.3,29.85,West,270,0.0,0.9,67,0.00,,---,0.12,VWS V14.00,2013-11-02 18:38:00,
2013-11-02 14:43:00,49.5,39.0,29.85,West,270,0.0,0.0,67,0.00,,---,0.12,VWS V14.00,2013-11-02 18:43:00,
2013-11-02 14:48:00,49.6,39.2,29.85,SSW,202,0.0,0.0,67,0.00,,---,0.12,VWS V14.00,2013-11-02 18:48:00,
2013-11-02 14:53:00,49.5,39.3,29.85,West,270,0.0,0.0,68,0.00,,---,0.12,VWS V14.00,2013-11-02 18:53:00,
2013-11-02 14:58:00,49.1,38.2,29.85,WNW,292,0.0,0.0,66,0.00,,---,0.12,VWS V14.00,2013-11-02 18:58:00,
2013-11-02 15:03:00,48.7,37.5,29.88,NNE,22,0.0,0.0,65,0.00,,---,0.12,VWS V14.00,2013-11-02 19:03:00,
2013-11-02 15:08:00,48.7,37.5,29.88,WSW,248,1.1,1.1,65,0.00,,---,0.12,VWS V14.00,2013-11-02 19:08:00,
2013-11-02 15:13:00,48.7,37.1,29.88,WNW,292,0.0,0.0,64,0.00,,---,0.12,VWS V14.00,2013-11-02 19:13:00,
2013-11-02 15:18:00,48.7,37.1,29.88,WSW,248,0.0,0.0,64,0.00,,---,0.12,VWS V14.00,2013-11-02 19:18:00,
2013-11-02 15:23:00,48.9,38.1,29.88,WNW,292,0.0,0.0,66,0.00,,---,0.12,VWS V14.00,2013-11-02 19:23:00,
2013-11-02 15:28:00,49.6,38.0,29.88,NE,45,0.0,0.0,64,0.00,,---,0.12,VWS V14.00,2013-11-02 19:28:00,
2013-11-02 15:34:00,49.6,37.2,29.88,West,270,0.0,3.4,62,0.00,,---,0.12,VWS V14.00,2013-11-02 19:34:00,
2013-11-02 15:39:00,49.5,37.8,29.88,WSW,248,0.0,0.0,64,0.00,,---,0.12,VWS V14.00,2013-11-02 19:39:00,
2013-11-02 15:44:00,49.1,37.5,29.88,WSW,248,0.0,0.0,64,0.00,,---,0.12,VWS V14.00,2013-11-02 19:44:00,
2013-11-02 15:49:00,48.7,37.1,29.88,NNE,22,0.0,1.3,64,0.00,,---,0.12,VWS V14.00,2013-11-02 19:49:00,
2013-11-02 15:54:00,48.7,37.9,29.88,West,270,0.0,1.6,66,0.00,,---,0.12,VWS V14.00,2013-11-02 19:54:00,
2013-11-02 15:59:00,48.6,38.1,29.88,WSW,248,0.0,0.9,67,0.00,,---,0.12,VWS V14.00,2013-11-02 19:59:00,
2013-11-02 16:04:00,48.6,38.5,29.88,West,270,0.0,1.1,68,0.00,,---,0.12,VWS V14.00,2013-11-02 20:04:00,
2013-11-02 16:09:00,48.4,38.3,29.88,NNW,338,1.1,1.1,68,0.00,,---,0.12,VWS V14.00,2013-11-02 20:09:00,
2013-11-02 16:14:00,48.0,39.1,29.88,West,270,0.0,2.5,71,0.00,,---,0.12,VWS V14.00,2013-11-02 20:14:00,
2013-11-02 16:19:00,47.8,38.9,29.88,West,270,0.0,0.0,71,0.00,,---,0.12,VWS V14.00,2013-11-02 20:19:00,
2013-11-02 16:24:00,48.2,39.6,29.88,SSW,202,1.1,1.1,72,0.00,,---,0.12,VWS V14.00,2013-11-02 20:24:00,
2013-11-02 16:29:00,48.6,40.0,29.88,SSW,202,0.9,2.5,72,0.00,,---,0.12,VWS V14.00,2013-11-02 20:29:00,
2013-11-02 16:34:00,48.4,39.8,29.88,NNE,22,0.0,0.0,72,0.00,,---,0.12,VWS V14.00,2013-11-02 20:34:00,
2013-11-02 16:39:00,48.2,39.2,29.88,NNW,338,0.0,0.0,71,0.00,,---,0.12,VWS V14.00,2013-11-02 20:39:00,
2013-11-02 16:44:00,48.2,39.2,29.88,North,0,0.9,0.9,71,0.00,,---,0.12,VWS V14.00,2013-11-02 20:44:00,
2013-11-02 16:49:00,48.2,39.2,29.91,WSW,248,3.1,3.1,71,0.00,,---,0.12,VWS V14.00,2013-11-02 20:49:00,
2013-11-02 16:54:00,48.0,39.1,29.91,NW,315,0.0,0.0,71,0.00,,---,0.12,VWS V14.00,2013-11-02 20:54:00,
2013-11-02 16:59:00,48.0,39.1,29.91,NNW,338,0.0,0.0,71,0.00,,---,0.12,VWS V14.00,2013-11-02 20:59:00,
2013-11-02 17:04:00,48.0,39.4,29.94,NNW,338,0.0,0.0,72,0.00,,---,0.12,VWS V14.00,2013-11-02 21:04:00,
2013-11-02 17:09:00,48.0,39.8,29.94,WSW,248,0.0,0.9,73,0.00,,---,0.12,VWS V14.00,2013-11-02 21:09:00,
2013-11-02 17:14:00,47.8,38.9,29.94,North,0,0.0,0.0,71,0.00,,---,0.12,VWS V14.00,2013-11-02 21:14:00,
2013-11-02 17:19:00,47.7,38.7,29.94,NNE,22,0.0,2.5,71,0.00,,---,0.12,VWS V14.00,2013-11-02 21:19:00,
2013-11-02 17:24:00,47.5,38.6,29.94,WNW,292,0.0,0.0,71,0.00,,---,0.12,VWS V14.00,2013-11-02 21:24:00,
2013-11-02 17:30:00,47.3,38.4,29.94,West,270,0.0,0.0,71,0.00,,---,0.12,VWS V14.00,2013-11-02 21:30:00,
2013-11-02 17:35:00,47.1,38.2,29.94,South,180,0.0,0.0,71,0.00,,---,0.12,VWS V14.00,2013-11-02 21:35:00,
2013-11-02 17:40:00,47.1,38.2,29.94,North,0,0.0,0.0,71,0.00,,---,0.12,VWS V14.00,2013-11-02 21:40:00,
2013-11-02 17:45:00,46.9,38.0,29.94,West,270,0.0,0.0,71,0.00,,---,0.12,VWS V14.00,2013-11-02 21:45:00,
2013-11-02 17:50:00,46.8,37.9,29.94,NW,315,0.0,0.0,71,0.00,,---,0.12,VWS V14.00,2013-11-02 21:50:00,
2013-11-02 17:55:00,46.6,37.7,29.94,West,270,0.0,0.0,71,0.00,,---,0.12,VWS V14.00,2013-11-02 21:55:00,
2013-11-02 18:00:00,46.6,37.7,29.94,NNE,22,0.0,0.0,71,0.00,,---,0.12,VWS V14.00,2013-11-02 22:00:00,
2013-11-02 18:05:00,46.4,37.5,29.94,NNE,22,0.0,0.0,71,0.00,,---,0.12,VWS V14.00,2013-11-02 22:05:00,
2013-11-02 18:10:00,46.2,37.7,29.94,WNW,292,0.0,1.3,72,0.00,,---,0.12,VWS V14.00,2013-11-02 22:10:00,
2013-11-02 18:15:00,46.2,37.7,29.94,WSW,248,0.0,0.0,72,0.00,,---,0.12,VWS V14.00,2013-11-02 22:15:00,
2013-11-02 18:20:00,46.2,38.1,29.91,NE,45,0.0,0.0,73,0.00,,---,0.12,VWS V14.00,2013-11-02 22:20:00,
2013-11-02 18:26:00,46.2,38.4,29.91,NNW,338,0.0,0.0,74,0.00,,---,0.12,VWS V14.00,2013-11-02 22:26:00,
2013-11-02 18:31:00,46.0,38.2,29.91,WNW,292,0.0,0.0,74,0.00,,---,0.12,VWS V14.00,2013-11-02 22:31:00,
2013-11-02 18:36:00,45.9,38.0,29.94,West,270,0.0,0.0,74,0.00,,---,0.12,VWS V14.00,2013-11-02 22:36:00,
2013-11-02 18:41:00,45.9,38.4,29.94,NW,315,0.0,0.0,75,0.00,,---,0.12,VWS V14.00,2013-11-02 22:41:00,
2013-11-02 18:46:00,45.9,38.4,29.94,West,270,0.0,0.0,75,0.00,,---,0.12,VWS V14.00,2013-11-02 22:46:00,
2013-11-02 18:51:00,45.9,38.4,29.94,West,270,0.0,0.0,75,0.00,,---,0.12,VWS V14.00,2013-11-02 22:51:00,
2013-11-02 18:56:00,45.7,38.6,29.94,West,270,0.0,0.0,76,0.00,,---,0.12,VWS V14.00,2013-11-02 22:56:00,
2013-11-02 19:01:00,45.7,38.6,29.94,West,270,0.0,0.0,76,0.00,,---,0.12,VWS V14.00,2013-11-02 23:01:00,
2013-11-02 19:06:00,45.7,38.9,29.97,West,270,0.0,0.0,77,0.00,,---,0.12,VWS V14.00,2013-11-02 23:06:00,
2013-11-02 19:11:00,45.5,39.0,29.97,West,270,0.0,0.0,78,0.00,,---,0.00,VWS V14.00,2013-11-02 23:11:00,
2013-11-02 19:16:00,45.5,39.0,29.97,West,270,0.0,0.0,78,0.00,,---,0.00,VWS V14.00,2013-11-02 23:16:00,
2013-11-02 19:21:00,45.5,39.0,29.97,West,270,0.0,0.0,78,0.00,,---,0.00,VWS V14.00,2013-11-02 23:21:00,
2013-11-02 19:26:00,45.3,39.2,29.97,West,270,0.0,0.0,79,0.00,,---,0.00,VWS V14.00,2013-11-02 23:26:00,
2013-11-02 19:31:00,45.3,39.2,29.97,West,270,0.0,0.0,79,0.00,,---,0.00,VWS V14.00,2013-11-02 23:31:00,
2013-11-02 19:36:00,45.3,39.2,29.97,West,270,0.0,0.0,79,0.00,,---,0.00,VWS V14.00,2013-11-02 23:36:00,
2013-11-02 19:41:00,45.3,39.5,29.97,West,270,0.0,0.0,80,0.00,,---,0.00,VWS V14.00,2013-11-02 23:41:00,
2013-11-02 19:46:00,45.1,39.7,29.97,West,270,0.0,0.0,81,0.00,,---,0.00,VWS V14.00,2013-11-02 23:46:00,
2013-11-02 19:52:00,45.1,39.7,29.97,West,270,0.0,0.0,81,0.00,,---,0.00,VWS V14.00,2013-11-02 23:52:00,
2013-11-02 19:57:00,45.1,40.0,29.97,West,270,0.0,0.0,82,0.00,,---,0.00,VWS V14.00,2013-11-02 23:57:00,
2013-11-02 20:02:00,45.1,40.0,29.97,West,270,0.0,0.0,82,0.00,,---,0.00,VWS V14.00,2013-11-03 00:02:00,
2013-11-02 20:07:00,45.0,39.8,29.97,West,270,0.0,0.0,82,0.00,,---,0.00,VWS V14.00,2013-11-03 00:07:00,
2013-11-02 20:12:00,45.0,39.8,29.97,West,270,0.0,0.0,82,0.00,,---,0.00,VWS V14.00,2013-11-03 00:12:00,
2013-11-02 20:17:00,45.0,39.8,29.97,West,270,0.0,0.0,82,0.00,,---,0.00,VWS V14.00,2013-11-03 00:17:00,
2013-11-02 20:22:00,45.0,39.5,30.00,West,270,0.0,0.0,81,0.00,,---,0.00,VWS V14.00,2013-11-03 00:22:00,
2013-11-02 20:27:00,45.0,39.8,30.00,West,270,0.0,0.0,82,0.00,,---,0.00,VWS V14.00,2013-11-03 00:27:00,
2013-11-02 20:32:00,45.0,39.5,30.00,West,270,0.0,0.0,81,0.00,,---,0.00,VWS V14.00,2013-11-03 00:32:00,
2013-11-02 20:37:00,44.8,39.3,30.00,East,90,0.0,0.0,81,0.00,,---,0.00,VWS V14.00,2013-11-03 00:37:00,
2013-11-02 20:42:00,44.6,38.8,30.00,North,0,0.0,2.2,80,0.00,,---,0.00,VWS V14.00,2013-11-03 00:42:00,
2013-11-02 20:47:00,44.4,38.7,30.00,North,0,0.0,0.0,80,0.00,,---,0.00,VWS V14.00,2013-11-03 00:47:00,
2013-11-02 20:53:00,44.2,38.2,30.00,North,0,0.0,0.0,79,0.00,,---,0.00,VWS V14.00,2013-11-03 00:53:00,
2013-11-02 20:58:00,44.1,37.7,30.00,East,90,0.0,0.0,78,0.00,,---,0.00,VWS V14.00,2013-11-03 00:58:00,
2013-11-02 21:03:00,44.1,37.7,30.03,East,90,0.0,0.0,78,0.00,,---,0.00,VWS V14.00,2013-11-03 01:03:00,
2013-11-02 21:08:00,43.9,37.5,30.03,East,90,0.0,0.0,78,0.00,,---,0.00,VWS V14.00,2013-11-03 01:08:00,
2013-11-02 21:13:00,43.7,37.0,30.03,ENE,68,0.0,0.0,77,0.00,,---,0.00,VWS V14.00,2013-11-03 01:13:00,
2013-11-02 21:18:00,43.7,37.3,30.00,ENE,68,0.0,0.0,78,0.00,,---,0.00,VWS V14.00,2013-11-03 01:18:00,
2013-11-02 21:23:00,43.7,37.6,30.00,NNW,338,0.0,0.0,79,0.00,,---,0.00,VWS V14.00,2013-11-03 01:23:00,
2013-11-02 21:28:00,43.7,37.6,30.00,NNE,22,0.0,1.1,79,0.00,,---,0.00,VWS V14.00,2013-11-03 01:28:00,
2013-11-02 21:33:00,43.5,37.1,30.00,North,0,0.0,0.0,78,0.00,,---,0.00,VWS V14.00,2013-11-03 01:33:00,
2013-11-02 21:38:00,43.5,37.5,30.00,North,0,0.0,0.0,79,0.00,,---,0.00,VWS V14.00,2013-11-03 01:38:00,
2013-11-02 21:43:00,43.3,37.0,30.00,North,0,0.0,0.0,78,0.00,,---,0.00,VWS V14.00,2013-11-03 01:43:00,
2013-11-02 21:48:00,43.3,37.3,30.00,North,0,0.0,0.0,79,0.00,,---,0.00,VWS V14.00,2013-11-03 01:48:00,
2013-11-02 21:53:00,43.3,37.3,30.00,SSE,158,0.0,0.0,79,0.00,,---,0.00,VWS V14.00,2013-11-03 01:53:00,
2013-11-02 21:58:00,43.2,36.8,30.00,SSE,158,0.0,0.0,78,0.00,,---,0.00,VWS V14.00,2013-11-03 01:58:00,
2013-11-02 22:03:00,43.0,36.6,30.03,ESE,112,0.9,0.9,78,0.00,,---,0.00,VWS V14.00,2013-11-03 02:03:00,
2013-11-02 22:08:00,43.0,36.6,30.03,East,90,0.0,0.0,78,0.00,,---,0.00,VWS V14.00,2013-11-03 02:08:00,
2013-11-02 22:14:00,43.0,36.9,30.03,NE,45,0.0,0.0,79,0.00,,---,0.00,VWS V14.00,2013-11-03 02:14:00,
2013-11-02 22:19:00,43.0,37.2,30.03,ESE,112,0.0,0.0,80,0.00,,---,0.00,VWS V14.00,2013-11-03 02:19:00,
2013-11-02 22:24:00,43.0,37.2,30.03,SSE,158,0.0,0.0,80,0.00,,---,0.00,VWS V14.00,2013-11-03 02:24:00,
2013-11-02 22:29:00,42.8,37.4,30.03,SE,135,0.0,0.0,81,0.00,,---,0.00,VWS V14.00,2013-11-03 02:29:00,
2013-11-02 22:34:00,42.4,37.0,30.03,SE,135,0.0,0.0,81,0.00,,---,0.00,VWS V14.00,2013-11-03 02:34:00,
2013-11-02 22:39:00,42.4,37.3,30.03,SE,135,0.0,0.0,82,0.00,,---,0.00,VWS V14.00,2013-11-03 02:39:00,
2013-11-02 22:44:00,42.4,38.0,30.03,SE,135,0.0,0.0,84,0.00,,---,0.00,VWS V14.00,2013-11-03 02:44:00,
2013-11-02 22:49:00,42.3,37.8,30.06,SE,135,0.0,0.0,84,0.00,,---,0.00,VWS V14.00,2013-11-03 02:49:00,
2013-11-02 22:54:00,42.3,37.8,30.06,SE,135,0.0,0.0,84,0.00,,---,0.00,VWS V14.00,2013-11-03 02:54:00,
2013-11-02 22:59:00,42.3,38.1,30.06,SE,135,0.0,0.0,85,0.00,,---,0.00,VWS V14.00,2013-11-03 02:59:00,
2013-11-02 23:04:00,42.4,38.3,30.06,SE,135,0.0,0.0,85,0.00,,---,0.00,VWS V14.00,2013-11-03 03:04:00,
2013-11-02 23:09:00,42.3,38.1,30.06,SSE,158,0.0,0.0,85,0.00,,---,0.00,VWS V14.00,2013-11-03 03:09:00,
2013-11-02 23:14:00,42.3,38.1,30.06,SSE,158,0.0,0.0,85,0.00,,---,0.00,VWS V14.00,2013-11-03 03:14:00,
2013-11-02 23:19:00,42.3,38.1,30.06,SSE,158,0.0,0.0,85,0.00,,---,0.00,VWS V14.00,2013-11-03 03:19:00,
2013-11-02 23:24:00,42.3,38.1,30.06,SSE,158,0.0,0.0,85,0.00,,---,0.00,VWS V14.00,2013-11-03 03:24:00,
2013-11-02 23:29:00,42.1,38.2,30.06,SSE,158,0.0,0.0,86,0.00,,---,0.00,VWS V14.00,2013-11-03 03:29:00,
2013-11-02 23:34:00,42.1,38.2,30.03,SSE,158,0.0,0.0,86,0.00,,---,0.00,VWS V14.00,2013-11-03 03:34:00,
2013-11-02 23:39:00,42.1,38.2,30.03,SSE,158,0.0,0.0,86,0.00,,---,0.00,VWS V14.00,2013-11-03 03:39:00,
2013-11-02 23:44:00,42.1,38.2,30.03,SSE,158,0.0,0.0,86,0.00,,---,0.00,VWS V14.00,2013-11-03 03:44:00,
2013-11-02 23:49:00,42.1,38.2,30.06,SSE,158,0.0,0.0,86,0.00,,---,0.00,VWS V14.00,2013-11-03 03:49:00,
2013-11-02 23:54:00,42.1,38.2,30.06,SSE,158,0.0,0.0,86,0.00,,---,0.00,VWS V14.00,2013-11-03 03:54:00,
2013-11-02 23:59:00,42.1,38.2,30.06,SSE,158,0.0,0.0,86,0.00,,---,0.00,VWS V14.00,2013-11-03 03:59:00,